createdAt,value
2022-11-30T00:02:33.927Z,74.28
2022-11-30T00:06:11.083Z,74.33
2022-11-30T00:09:37.761Z,74.26
2022-11-30T00:13:04.881Z,74.37
2022-11-30T00:16:34.468Z,74.08
2022-11-30T00:20:01.438Z,74.23
2022-11-30T00:23:35.762Z,74.15
2022-11-30T00:27:07.016Z,73.99
2022-11-30T00:30:46.592Z,73.83
2022-11-30T00:34:27.424Z,74.13
2022-11-30T00:38:04.874Z,73.96
2022-11-30T00:41:55.397Z,73.89
2022-11-30T00:45:41.452Z,73.95
2022-11-30T00:49:16.236Z,74.04
2022-11-30T00:52:43.851Z,73.89
2022-11-30T00:56:12.694Z,74.15
2022-11-30T00:59:42.254Z,74.35
2022-11-30T01:03:09.041Z,74.55
2022-11-30T01:06:40.365Z,74.42
2022-11-30T01:10:12.300Z,74.44
2022-11-30T01:13:40.818Z,74.38
2022-11-30T01:17:08.729Z,74.02
2022-11-30T01:20:38.055Z,74.03
2022-11-30T01:24:05.190Z,73.97
2022-11-30T01:27:36.110Z,74.07
2022-11-30T01:31:09.744Z,74.31
2022-11-30T01:34:39.041Z,73.90
2022-11-30T01:38:11.152Z,73.68
2022-11-30T01:41:42.280Z,73.97
2022-11-30T01:45:14.611Z,73.65
2022-11-30T01:48:42.386Z,73.96
2022-11-30T01:52:15.110Z,73.84
2022-11-30T01:55:45.761Z,73.94
2022-11-30T01:59:15.810Z,73.57
2022-11-30T02:02:51.591Z,73.71
2022-11-30T02:06:19.317Z,73.90
2022-11-30T02:09:47.612Z,73.89
2022-11-30T02:13:34.666Z,73.90
2022-11-30T02:17:11.755Z,74.10
2022-11-30T02:20:51.352Z,74.65
2022-11-30T02:24:42.658Z,74.39
2022-11-30T02:28:40.069Z,74.20
2022-11-30T02:32:11.247Z,74.21
2022-11-30T02:35:40.504Z,74.15
2022-11-30T02:39:08.850Z,73.86
2022-11-30T02:42:36.079Z,73.84
2022-11-30T02:46:08.447Z,73.72
2022-11-30T02:49:39.194Z,73.93
2022-11-30T02:53:06.764Z,73.86
2022-11-30T02:56:35.997Z,73.91
2022-11-30T03:00:10.888Z,73.88
2022-11-30T03:03:38.025Z,73.99
2022-11-30T03:07:04.914Z,73.80
2022-11-30T03:10:34.432Z,73.81
2022-11-30T03:14:03.408Z,73.75
2022-11-30T03:17:30.130Z,73.91
2022-11-30T03:20:57.144Z,74.01
2022-11-30T03:24:27.544Z,73.97
2022-11-30T03:27:55.807Z,74.06
2022-11-30T03:31:22.811Z,74.15
2022-11-30T03:34:52.720Z,74.32
2022-11-30T03:38:20.682Z,74.31
2022-11-30T03:41:50.433Z,74.12
2022-11-30T03:45:17.639Z,74.08
2022-11-30T03:48:45.417Z,73.90
2022-11-30T03:52:13.074Z,73.98
2022-11-30T03:55:40.273Z,74.03
2022-11-30T03:59:17.340Z,73.74
2022-11-30T04:02:46.901Z,73.89
2022-11-30T04:06:17.084Z,73.79
2022-11-30T04:09:43.700Z,73.76
2022-11-30T04:13:12.900Z,73.79
2022-11-30T04:16:39.484Z,74.06
2022-11-30T04:20:09.669Z,73.79
2022-11-30T04:23:38.836Z,73.87
2022-11-30T04:27:06.719Z,74.04
2022-11-30T04:30:36.099Z,74.00
2022-11-30T04:34:03.838Z,74.15
2022-11-30T04:37:31.009Z,74.17
2022-11-30T04:41:10.358Z,74.35
2022-11-30T04:44:36.766Z,74.17
2022-11-30T04:48:09.041Z,74.37
2022-11-30T04:51:36.439Z,74.13
2022-11-30T04:55:04.580Z,74.37
2022-11-30T04:58:31.700Z,74.11
2022-11-30T05:01:59.500Z,74.06
2022-11-30T05:05:26.917Z,74.10
2022-11-30T05:08:54.965Z,73.98
2022-11-30T05:12:21.800Z,74.09
2022-11-30T05:15:50.131Z,74.06
2022-11-30T05:19:18.187Z,74.25
2022-11-30T05:22:45.962Z,74.15
2022-11-30T05:26:12.721Z,74.13
2022-11-30T05:29:40.612Z,74.04
2022-11-30T05:33:10.429Z,74.14
2022-11-30T05:36:44.213Z,74.05
2022-11-30T05:40:13.105Z,73.98
2022-11-30T05:43:39.714Z,74.07
2022-11-30T05:47:06.013Z,74.07
2022-11-30T05:50:32.837Z,74.00
2022-11-30T05:53:59.675Z,73.95
2022-11-30T05:57:26.586Z,74.20
2022-11-30T06:00:53.535Z,74.19
2022-11-30T06:04:26.101Z,74.06
2022-11-30T06:07:52.746Z,74.19
2022-11-30T06:11:20.107Z,74.28
2022-11-30T06:14:46.952Z,74.24
2022-11-30T06:18:15.567Z,74.13
2022-11-30T06:21:42.002Z,74.12
2022-11-30T06:25:08.927Z,74.17
2022-11-30T06:28:36.473Z,74.31
2022-11-30T06:32:03.040Z,74.16
2022-11-30T06:35:46.991Z,74.06
2022-11-30T06:39:50.024Z,74.06
2022-11-30T06:43:11.591Z,74.29
2022-11-30T06:46:38.033Z,74.18
2022-11-30T06:50:05.835Z,74.26
2022-11-30T06:53:33.253Z,74.36
2022-11-30T06:56:59.483Z,74.43
2022-11-30T07:00:27.382Z,74.64
2022-11-30T07:03:54.586Z,74.52
2022-11-30T07:07:22.564Z,74.41
2022-11-30T07:10:49.812Z,74.37
2022-11-30T07:14:16.654Z,74.42
2022-11-30T07:17:43.063Z,74.46
2022-11-30T07:21:11.432Z,74.46
2022-11-30T07:24:57.271Z,74.58
2022-11-30T07:28:25.206Z,74.37
2022-11-30T07:31:55.187Z,74.46
2022-11-30T07:35:23.028Z,74.54
2022-11-30T07:38:49.792Z,74.53
2022-11-30T07:42:17.253Z,74.61
2022-11-30T07:45:44.209Z,74.58
2022-11-30T07:49:12.594Z,74.26
2022-11-30T07:52:39.485Z,74.30
2022-11-30T07:56:08.463Z,74.30
2022-11-30T07:59:34.826Z,74.36
2022-11-30T08:03:01.306Z,74.35
2022-11-30T08:06:31.807Z,74.33
2022-11-30T08:09:58.343Z,74.40
2022-11-30T08:13:25.115Z,74.57
2022-11-30T08:16:52.095Z,74.43
2022-11-30T08:20:18.881Z,74.28
2022-11-30T08:23:47.172Z,74.22
2022-11-30T08:27:14.205Z,74.25
2022-11-30T08:30:47.207Z,74.21
2022-11-30T08:34:16.125Z,74.27
2022-11-30T08:37:42.759Z,74.21
2022-11-30T08:41:12.170Z,74.32
2022-11-30T08:44:39.046Z,74.20
2022-11-30T08:48:16.575Z,74.13
2022-11-30T08:52:15.368Z,74.21
2022-11-30T08:55:30.513Z,74.07
2022-11-30T08:58:57.889Z,74.01
2022-11-30T09:02:24.723Z,74.20
2022-11-30T09:05:51.822Z,74.25
2022-11-30T09:09:18.514Z,74.26
2022-11-30T09:12:48.676Z,74.26
2022-11-30T09:16:17.213Z,74.20
2022-11-30T09:19:45.172Z,74.26
2022-11-30T09:23:15.034Z,74.46
2022-11-30T09:26:41.792Z,74.61
2022-11-30T09:30:13.112Z,74.50
2022-11-30T09:33:40.425Z,74.37
2022-11-30T09:37:07.023Z,74.52
2022-11-30T09:40:35.852Z,74.41
2022-11-30T09:44:11.910Z,74.16
2022-11-30T09:48:22.768Z,74.04
2022-11-30T09:51:52.314Z,74.07
2022-11-30T09:55:26.754Z,73.93
2022-11-30T09:58:57.746Z,73.97
2022-11-30T10:02:30.025Z,74.03
2022-11-30T10:06:05.812Z,74.00
2022-11-30T10:10:02.934Z,74.06
2022-11-30T10:13:48.787Z,74.03
2022-11-30T10:17:28.953Z,74.21
2022-11-30T10:21:05.709Z,74.16
2022-11-30T10:24:51.577Z,74.16
2022-11-30T10:28:46.513Z,74.35
2022-11-30T10:32:21.948Z,74.46
2022-11-30T10:35:53.794Z,74.34
2022-11-30T10:39:26.695Z,74.18
2022-11-30T10:43:07.520Z,74.01
2022-11-30T10:46:38.557Z,74.18
2022-11-30T10:50:07.044Z,74.10
2022-11-30T10:53:34.929Z,74.08
2022-11-30T10:57:04.285Z,74.00
2022-11-30T11:00:31.341Z,74.05
2022-11-30T11:04:11.937Z,73.95
2022-11-30T11:07:49.778Z,74.02
2022-11-30T11:11:31.781Z,74.16
2022-11-30T11:15:18.685Z,73.83
2022-11-30T11:18:57.949Z,73.68
2022-11-30T11:22:26.225Z,73.84
2022-11-30T11:25:55.985Z,73.94
2022-11-30T11:29:35.155Z,73.68
2022-11-30T11:33:03.729Z,73.89
2022-11-30T11:36:32.895Z,73.77
2022-11-30T11:40:06.934Z,73.84
2022-11-30T11:43:36.043Z,74.07
2022-11-30T11:47:05.779Z,73.89
2022-11-30T11:54:30.251Z,73.90
2022-11-30T11:58:05.806Z,73.80
2022-11-30T12:01:46.431Z,73.52
2022-11-30T12:05:17.777Z,73.71
2022-11-30T12:08:51.888Z,73.58
2022-11-30T12:12:18.557Z,73.67
2022-11-30T12:15:58.093Z,73.53
2022-11-30T12:19:29.009Z,73.53
2022-11-30T12:23:09.900Z,73.46
2022-11-30T12:26:44.393Z,73.46
2022-11-30T12:30:19.801Z,73.47
2022-11-30T12:34:02.745Z,73.44
2022-11-30T12:37:40.744Z,73.44
2022-11-30T12:41:32.022Z,73.33
2022-11-30T12:45:06.764Z,73.52
2022-11-30T12:48:42.742Z,73.54
2022-11-30T12:52:22.317Z,73.46
2022-11-30T12:55:58.312Z,73.61
2022-11-30T12:59:33.968Z,73.74
2022-11-30T13:03:30.748Z,73.81
2022-11-30T13:07:02.704Z,73.54
2022-11-30T13:10:36.857Z,73.50
2022-11-30T13:14:06.243Z,73.58
2022-11-30T13:17:33.227Z,73.55
2022-11-30T13:21:07.077Z,73.61
2022-11-30T13:24:41.108Z,73.66
2022-11-30T13:28:16.579Z,73.71
2022-11-30T13:31:49.177Z,73.62
2022-11-30T13:35:43.832Z,73.44
2022-11-30T13:39:37.578Z,73.35
2022-11-30T13:43:04.289Z,73.25
2022-11-30T13:46:31.355Z,73.20
2022-11-30T13:50:01.475Z,73.48
2022-11-30T13:53:34.209Z,73.45
2022-11-30T13:57:01.273Z,73.48
2022-11-30T14:00:50.079Z,73.40
2022-11-30T14:04:34.097Z,73.70
2022-11-30T14:08:32.833Z,73.75
2022-11-30T14:11:59.759Z,73.73
2022-11-30T14:16:00.758Z,73.54
2022-11-30T14:19:30.402Z,73.50
2022-11-30T14:22:57.437Z,73.75
2022-11-30T14:26:33.875Z,73.68
2022-11-30T14:30:07.462Z,73.57
2022-11-30T14:33:44.528Z,73.56
2022-11-30T14:37:20.288Z,73.64
2022-11-30T14:40:58.011Z,73.40
2022-11-30T14:44:25.410Z,73.41
2022-11-30T14:47:57.777Z,73.32
2022-11-30T14:51:29.188Z,73.22
2022-11-30T14:55:00.650Z,73.32
2022-11-30T14:58:32.583Z,73.30
2022-11-30T15:02:02.425Z,73.13
2022-11-30T15:05:33.129Z,72.99
2022-11-30T15:09:02.551Z,73.25
2022-11-30T15:12:32.497Z,73.24
2022-11-30T15:15:59.771Z,73.34
2022-11-30T15:19:28.424Z,73.30
2022-11-30T15:22:55.065Z,73.55
2022-11-30T15:26:26.007Z,73.51
2022-11-30T15:29:59.407Z,73.40
2022-11-30T15:33:31.875Z,73.69
2022-11-30T15:37:04.527Z,73.48
2022-11-30T15:40:36.231Z,73.47
2022-11-30T15:44:03.691Z,73.37
2022-11-30T15:47:37.298Z,73.24
2022-11-30T15:51:02.807Z,73.27
2022-11-30T15:54:50.396Z,73.19
2022-11-30T15:58:37.319Z,73.27
2022-11-30T16:02:08.948Z,73.09
2022-11-30T16:05:41.183Z,73.20
2022-11-30T16:09:22.811Z,73.21
2022-11-30T16:12:52.928Z,73.18
2022-11-30T16:16:24.277Z,73.13
2022-11-30T16:19:51.048Z,73.11
2022-11-30T16:23:20.273Z,73.07
2022-11-30T16:26:54.507Z,73.08
2022-11-30T16:30:23.810Z,73.12
2022-11-30T16:33:56.555Z,73.34
2022-11-30T16:37:27.064Z,73.14
2022-11-30T16:40:56.280Z,73.44
2022-11-30T16:44:25.391Z,73.62
2022-11-30T16:47:52.493Z,73.58
2022-11-30T16:51:26.001Z,73.34
2022-11-30T16:54:53.319Z,73.16
2022-11-30T16:58:23.699Z,73.34
2022-11-30T17:01:53.533Z,73.19
2022-11-30T17:05:24.259Z,73.17
2022-11-30T17:08:53.622Z,73.10
2022-11-30T17:12:24.923Z,73.04
2022-11-30T17:15:53.874Z,73.13
2022-11-30T17:19:25.187Z,73.12
2022-11-30T17:22:54.032Z,73.25
2022-11-30T17:26:25.611Z,73.14
2022-11-30T17:29:54.223Z,73.02
2022-11-30T17:33:22.129Z,72.98
2022-11-30T17:36:52.171Z,72.97
2022-11-30T17:40:19.255Z,73.07
2022-11-30T17:43:54.482Z,73.18
2022-11-30T17:47:22.763Z,73.03
2022-11-30T17:50:58.081Z,73.10
2022-11-30T17:54:27.650Z,73.18
2022-11-30T17:58:11.674Z,73.47
2022-11-30T18:01:41.849Z,73.47
2022-11-30T18:05:19.534Z,73.28
2022-11-30T18:08:50.173Z,73.16
2022-11-30T18:12:24.901Z,73.09
2022-11-30T18:15:52.234Z,73.00
2022-11-30T18:19:21.620Z,72.95
2022-11-30T18:22:51.824Z,73.09
2022-11-30T18:26:22.578Z,72.87
2022-11-30T18:29:49.127Z,72.87
2022-11-30T18:33:17.415Z,72.97
2022-11-30T18:36:44.199Z,73.00
2022-11-30T18:40:12.847Z,72.96
2022-11-30T18:43:40.577Z,73.00
2022-11-30T18:47:07.929Z,73.02
2022-11-30T18:50:36.661Z,73.03
2022-11-30T18:54:04.962Z,73.08
2022-11-30T18:57:33.044Z,73.03
2022-11-30T19:01:08.522Z,72.91
2022-11-30T19:04:40.338Z,73.12
2022-11-30T19:08:11.847Z,73.24
2022-11-30T19:11:43.926Z,73.41
2022-11-30T19:15:16.711Z,73.45
2022-11-30T19:18:47.626Z,73.44
2022-11-30T19:22:20.021Z,73.54
2022-11-30T19:25:49.148Z,73.47
2022-11-30T19:29:26.111Z,73.34
2022-11-30T19:33:01.955Z,73.24
2022-11-30T19:36:33.854Z,73.03
2022-11-30T19:40:04.443Z,73.03
2022-11-30T19:43:40.020Z,73.02
2022-11-30T19:47:09.845Z,72.85
2022-11-30T19:50:41.617Z,72.92
2022-11-30T19:54:17.365Z,72.81
2022-11-30T19:57:50.169Z,72.82
2022-11-30T20:01:24.173Z,72.77
2022-11-30T20:04:57.110Z,72.77
2022-11-30T20:08:33.869Z,72.93
2022-11-30T20:12:02.025Z,72.82
2022-11-30T20:15:29.905Z,72.73
2022-11-30T20:19:02.697Z,72.65
2022-11-30T20:22:30.938Z,72.79
2022-11-30T20:25:59.334Z,72.91
2022-11-30T20:29:30.290Z,73.07
2022-11-30T20:32:57.380Z,73.07
2022-11-30T20:36:26.945Z,73.08
2022-11-30T20:39:54.481Z,73.10
2022-11-30T20:43:21.266Z,73.06
2022-11-30T20:46:48.941Z,72.87
2022-11-30T20:50:16.442Z,72.78
2022-11-30T20:53:44.149Z,72.68
2022-11-30T20:57:12.972Z,72.59
2022-11-30T21:00:39.792Z,72.82
2022-11-30T21:04:08.898Z,72.87
2022-11-30T21:07:36.294Z,72.83
2022-11-30T21:11:07.589Z,72.74
2022-11-30T21:14:35.349Z,72.72
2022-11-30T21:18:03.458Z,72.41
2022-11-30T21:21:33.364Z,72.54
2022-11-30T21:25:07.666Z,72.70
2022-11-30T21:28:38.408Z,72.65
2022-11-30T21:32:11.088Z,72.73
2022-11-30T21:35:41.466Z,72.70
2022-11-30T21:39:09.516Z,72.66
2022-11-30T21:42:37.330Z,72.81
2022-11-30T21:46:09.717Z,72.90
2022-11-30T21:49:41.739Z,73.05
2022-11-30T21:53:11.329Z,73.02
2022-11-30T21:56:40.231Z,72.86
2022-11-30T22:00:08.133Z,72.94
2022-11-30T22:03:34.981Z,72.76
2022-11-30T22:07:01.617Z,73.01
2022-11-30T22:10:28.948Z,73.01
2022-11-30T22:13:57.449Z,73.00
2022-11-30T22:17:24.149Z,73.03
2022-11-30T22:20:51.338Z,73.00
2022-11-30T22:24:19.033Z,72.99
2022-11-30T22:27:45.957Z,72.84
2022-11-30T22:31:14.779Z,72.73
2022-11-30T22:34:42.256Z,72.93
2022-11-30T22:38:09.248Z,72.96
2022-11-30T22:41:36.835Z,72.77
2022-11-30T22:45:03.404Z,72.93
2022-11-30T22:48:32.199Z,72.90
2022-11-30T22:51:59.120Z,73.03
2022-11-30T22:55:26.481Z,73.11
2022-11-30T22:58:54.926Z,73.20
2022-11-30T23:02:24.276Z,73.21
2022-11-30T23:05:50.782Z,73.41
2022-11-30T23:09:20.279Z,73.35
2022-11-30T23:12:59.686Z,73.18
2022-11-30T23:16:27.581Z,72.93
2022-11-30T23:19:55.904Z,73.20
2022-11-30T23:23:25.879Z,73.14
2022-11-30T23:26:53.380Z,73.25
2022-11-30T23:30:20.580Z,72.92
2022-11-30T23:33:47.943Z,73.08
2022-11-30T23:37:15.446Z,73.05
2022-11-30T23:40:42.150Z,73.16
2022-11-30T23:44:09.794Z,72.91
2022-11-30T23:47:38.438Z,73.04
2022-11-30T23:51:08.299Z,73.11
2022-11-30T23:54:36.059Z,73.16
2022-11-30T23:58:03.127Z,73.20
